Time;durP1;ratioP1;P1;durP2;ratioP2;P2;SDS_P1;SDS_P2;PMS_P1;PMS_P2;Temp;Humidity;BMP_temperature;BMP_pressure;BME280_temperature;BME280_humidity;BME280_pressure;Samples;Min_cycle;Max_cycle;Signal;HPM_P1;HPM_P2
2021/11/16 00:00:49;;;;;;;9.88;6.88;;;;;;;19.32;43.72;102448.03;5092870;28;20036;-73
2021/11/16 00:03:15;;;;;;;10.20;6.38;;;;;;;19.29;43.83;102442.91;5092743;28;20028;-72
2021/11/16 00:05:41;;;;;;;10.30;6.28;;;;;;;19.29;43.65;102446.41;5092330;28;20024;-72
2021/11/16 00:08:07;;;;;;;10.20;6.10;;;;;;;19.28;43.53;102457.06;5092532;28;20059;-72
2021/11/16 00:10:33;;;;;;;9.68;6.50;;;;;;;19.25;43.69;102446.69;5092654;28;20036;-72
2021/11/16 00:12:59;;;;;;;9.73;6.28;;;;;;;19.24;43.68;102443.19;5091338;28;20047;-72
2021/11/16 00:15:25;;;;;;;8.85;6.30;;;;;;;19.23;43.67;102440.66;5092611;28;20028;-72
2021/11/16 00:17:51;;;;;;;9.75;6.22;;;;;;;19.21;43.64;102436.28;5091894;28;20112;-72
2021/11/16 00:20:17;;;;;;;10.50;7.13;;;;;;;19.20;43.44;102439.03;5092388;28;20494;-72
2021/11/16 00:22:44;;;;;;;9.70;6.20;;;;;;;19.18;43.63;102439.16;5092837;28;20046;-72
2021/11/16 00:27:42;;;;;;;10.00;6.82;;;;;;;19.15;43.56;102434.03;5092779;28;20036;-73
2021/11/16 00:30:11;;;;;;;9.75;6.40;;;;;;;19.12;43.36;102434.22;5092031;28;20471;-72
2021/11/16 00:32:37;;;;;;;10.43;7.18;;;;;;;19.12;43.48;102428.94;5091803;28;20020;-73
2021/11/16 00:35:03;;;;;;;10.38;7.00;;;;;;;19.10;43.36;102424.69;5091977;28;20020;-72
2021/11/16 00:37:28;;;;;;;8.23;6.13;;;;;;;19.08;43.15;102424.78;5092291;28;20372;-72
2021/11/16 00:39:56;;;;;;;9.63;6.82;;;;;;;19.08;43.40;102416.84;5091509;28;20030;-72
2021/11/16 00:42:23;;;;;;;10.48;6.78;;;;;;;19.06;43.37;102413.47;5092342;28;20056;-73
2021/11/16 00:44:48;;;;;;;10.38;6.75;;;;;;;19.06;43.28;102415.22;5092439;28;20085;-72
2021/11/16 00:47:13;;;;;;;11.00;6.90;;;;;;;19.04;43.27;102412.69;5091134;28;20028;-72
2021/11/16 00:49:39;;;;;;;10.63;6.93;;;;;;;19.00;43.56;102411.19;5094951;28;20107;-72
2021/11/16 00:52:05;;;;;;;9.55;6.57;;;;;;;18.99;43.32;102415.63;5096158;28;20073;-72
2021/11/16 00:54:30;;;;;;;12.05;7.25;;;;;;;18.99;43.10;102412.97;5095473;28;20020;-73
2021/11/16 00:56:55;;;;;;;8.80;6.18;;;;;;;18.97;43.34;102400.78;5096055;28;20085;-72
2021/11/16 00:59:21;;;;;;;9.55;6.57;;;;;;;18.97;43.20;102403.44;5096245;28;20036;-72
2021/11/16 01:01:46;;;;;;;9.90;6.70;;;;;;;18.94;43.07;102396.53;5095687;28;20021;-72
2021/11/16 01:04:15;;;;;;;10.77;7.20;;;;;;;18.95;43.48;102400.88;5095968;28;20020;-73
2021/11/16 01:06:40;;;;;;;9.52;6.60;;;;;;;18.92;43.32;102395.78;5096222;28;20043;-73
2021/11/16 01:09:05;;;;;;;10.57;6.75;;;;;;;18.92;43.38;102394.94;5095111;28;20024;-72
2021/11/16 01:11:31;;;;;;;11.00;7.07;;;;;;;18.91;43.36;102390.59;5096069;28;20042;-72
2021/11/16 01:13:56;;;;;;;9.30;6.43;;;;;;;18.90;43.19;102394.16;5095999;28;20031;-72
2021/11/16 01:16:22;;;;;;;10.45;7.03;;;;;;;18.90;43.43;102391.53;5095204;28;20272;-73
2021/11/16 01:18:47;;;;;;;9.52;6.68;;;;;;;18.89;43.31;102392.50;5095937;28;20028;-71
2021/11/16 01:21:12;;;;;;;10.70;7.25;;;;;;;18.86;43.07;102388.22;5094984;28;20038;-71
2021/11/16 01:23:38;;;;;;;10.70;7.28;;;;;;;18.85;43.39;102387.38;5095836;28;20035;-73
2021/11/16 01:26:03;;;;;;;10.13;6.88;;;;;;;18.82;43.16;102382.25;5095758;28;20485;-73
2021/11/16 01:28:29;;;;;;;9.50;6.72;;;;;;;18.82;42.97;102378.78;5095124;28;20456;-73
2021/11/16 01:30:58;;;;;;;11.25;7.68;;;;;;;18.81;43.19;102385.81;5095733;28;20472;-73
2021/11/16 01:33:40;;;;;;;9.75;6.72;;;;;;;18.81;43.27;102387.63;5095781;28;20032;-74
2021/11/16 01:36:07;;;;;;;10.77;6.85;;;;;;;18.79;43.26;102385.06;5095196;28;20036;-73
2021/11/16 01:38:33;;;;;;;9.80;6.93;;;;;;;18.78;43.30;102380.72;5095770;28;20039;-72
2021/11/16 01:40:58;;;;;;;10.20;7.53;;;;;;;18.77;43.12;102379.06;5095335;28;20107;-72
2021/11/16 01:43:23;;;;;;;9.82;6.47;;;;;;;18.76;43.10;102373.84;5095168;28;20024;-72
2021/11/16 01:45:51;;;;;;;9.93;6.40;;;;;;;18.75;42.70;102375.63;5095672;28;20036;-72
2021/11/16 01:48:17;;;;;;;11.10;7.60;;;;;;;18.74;43.05;102366.03;5095461;28;20032;-72
2021/11/16 01:50:44;;;;;;;10.40;6.88;;;;;;;18.73;43.21;102361.66;5095907;28;20027;-73
2021/11/16 01:53:11;;;;;;;10.60;7.28;;;;;;;18.72;43.11;102361.75;5095983;28;20046;-73
2021/11/16 01:55:37;;;;;;;10.43;7.22;;;;;;;18.72;43.24;102362.59;5096875;28;20028;-73
2021/11/16 01:58:02;;;;;;;9.57;6.97;;;;;;;18.70;43.19;102374.22;5095264;28;20039;-73
2021/11/16 02:00:33;;;;;;;10.93;7.18;;;;;;;18.69;43.24;102370.72;5100127;28;20039;-73
2021/11/16 02:02:59;;;;;;;10.15;7.35;;;;;;;18.68;43.29;102367.22;5098222;28;20386;-73
2021/11/16 02:05:36;;;;;;;9.85;6.68;;;;;;;18.68;42.85;102363.75;5097627;28;20040;-73
2021/11/16 02:08:02;;;;;;;11.13;7.32;;;;;;;18.66;43.19;102363.84;5105905;28;20028;-73
2021/11/16 02:10:28;;;;;;;10.30;6.93;;;;;;;18.65;42.94;102361.28;5108302;28;20039;-73
2021/11/16 02:12:53;;;;;;;10.85;7.40;;;;;;;18.64;43.13;102357.81;5109202;28;20048;-72
2021/11/16 02:15:18;;;;;;;9.43;6.95;;;;;;;18.64;43.14;102371.00;5108443;28;20077;-72
2021/11/16 02:17:45;;;;;;;9.95;7.05;;;;;;;18.63;43.04;102366.66;5096916;28;20506;-73
2021/11/16 02:20:10;;;;;;;11.25;7.50;;;;;;;18.62;43.21;102367.59;5096939;28;20103;-73
2021/11/16 02:22:36;;;;;;;9.32;6.68;;;;;;;18.61;42.95;102365.03;5097792;28;20059;-72
2021/11/16 02:25:03;;;;;;;9.98;7.05;;;;;;;18.61;42.94;102359.75;5096723;28;20032;-73
2021/11/16 02:27:29;;;;;;;10.43;7.70;;;;;;;18.59;43.05;102356.38;5103043;28;20040;-74
2021/11/16 02:29:54;;;;;;;10.05;7.35;;;;;;;18.58;42.89;102363.44;5108317;28;20028;-74
2021/11/16 02:32:19;;;;;;;9.38;6.63;;;;;;;18.59;43.13;102356.38;5104069;28;20084;-73
2021/11/16 02:34:45;;;;;;;10.52;6.90;;;;;;;18.58;43.17;102362.56;5097577;28;20027;-73
2021/11/16 02:37:10;;;;;;;10.80;6.97;;;;;;;18.58;43.22;102357.28;5096713;28;20111;-73
2021/11/16 02:39:35;;;;;;;10.38;7.20;;;;;;;18.56;42.90;102360.03;5095536;28;20759;-73
2021/11/16 02:42:02;;;;;;;10.57;7.35;;;;;;;18.56;43.01;102356.53;5096081;28;20055;-72
2021/11/16 02:44:27;;;;;;;9.45;6.80;;;;;;;18.55;43.00;102360.13;5096583;28;20130;-73
2021/11/16 02:46:53;;;;;;;9.52;6.55;;;;;;;18.54;43.09;102351.34;5095801;28;20487;-73
2021/11/16 02:49:18;;;;;;;9.93;6.85;;;;;;;18.54;43.25;102347.88;5097771;28;20371;-72
2021/11/16 02:51:44;;;;;;;9.95;7.15;;;;;;;18.52;43.24;102358.53;5100226;28;20024;-73
2021/11/16 02:54:15;;;;;;;10.90;7.60;;;;;;;18.53;42.93;102362.84;5096578;28;20019;-73
2021/11/16 02:56:45;;;;;;;10.55;7.88;;;;;;;18.53;43.12;102360.22;5098731;28;20024;-72
2021/11/16 02:59:11;;;;;;;10.00;7.03;;;;;;;18.51;43.10;102350.69;5097933;28;20043;-73
2021/11/16 03:01:38;;;;;;;9.98;7.55;;;;;;;18.51;43.15;102355.97;5094102;28;20104;-72
2021/11/16 03:04:04;;;;;;;10.93;7.63;;;;;;;18.47;42.93;102348.25;5094162;28;20039;-73
2021/11/16 03:06:30;;;;;;;10.43;7.70;;;;;;;18.46;42.76;102346.53;5094135;28;20040;-73
2021/11/16 03:08:55;;;;;;;11.20;7.80;;;;;;;18.47;42.95;102348.25;5093096;28;20044;-73
2021/11/16 03:11:21;;;;;;;10.85;7.25;;;;;;;18.48;43.15;102349.06;5093164;28;20344;-72
2021/11/16 03:13:46;;;;;;;10.70;7.43;;;;;;;18.47;43.19;102350.03;5093225;28;20032;-72
2021/11/16 03:16:17;;;;;;;11.05;7.65;;;;;;;18.46;42.97;102346.53;5093495;28;20379;-72
2021/11/16 03:18:45;;;;;;;9.82;7.00;;;;;;;18.45;42.79;102336.06;5093649;28;20532;-73
2021/11/16 03:21:12;;;;;;;10.50;7.50;;;;;;;18.46;42.79;102337.75;5092789;28;20024;-72
2021/11/16 03:23:40;;;;;;;11.15;7.40;;;;;;;18.44;42.81;102343.13;5093528;28;20068;-72
2021/11/16 03:26:05;;;;;;;10.38;7.10;;;;;;;18.44;42.84;102340.50;5093408;28;20383;-73
2021/11/16 03:28:35;;;;;;;9.20;6.93;;;;;;;18.45;43.28;102338.69;5092778;28;20032;-72
2021/11/16 03:31:17;;;;;;;9.93;7.47;;;;;;;18.43;43.15;102337.94;5093435;28;20047;-72
2021/11/16 03:33:42;;;;;;;11.35;7.15;;;;;;;18.44;43.31;102332.56;5093339;28;20387;-73
2021/11/16 03:36:08;;;;;;;10.60;7.30;;;;;;;18.46;43.03;102321.94;5092410;28;20021;-72
2021/11/16 03:38:34;;;;;;;10.73;7.20;;;;;;;18.47;42.95;102329.75;5093449;28;20463;-72
2021/11/16 03:40:59;;;;;;;9.95;6.88;;;;;;;18.49;43.05;102333.16;5092833;28;20104;-72
2021/11/16 03:43:25;;;;;;;10.88;7.43;;;;;;;18.52;43.01;102334.75;5092425;28;20032;-73
2021/11/16 03:45:52;;;;;;;10.10;7.35;;;;;;;18.53;42.68;102339.09;5093115;28;20027;-73
2021/11/16 03:48:18;;;;;;;10.23;7.15;;;;;;;18.55;42.52;102336.34;5092766;28;20109;-72
2021/11/16 03:50:44;;;;;;;10.40;7.72;;;;;;;18.55;42.94;102334.59;5092204;28;20509;-72
2021/11/16 03:53:10;;;;;;;11.60;7.82;;;;;;;18.58;42.86;102336.19;5092762;28;20028;-72
2021/11/16 03:55:40;;;;;;;9.75;7.20;;;;;;;18.56;42.62;102330.16;5092974;28;20083;-72
2021/11/16 03:58:06;;;;;;;10.25;7.22;;;;;;;18.57;42.80;102329.22;5092140;28;20061;-72
2021/11/16 04:00:56;;;;;;;10.45;6.93;;;;;;;18.58;42.62;102336.19;5092405;28;20028;-72
2021/11/16 04:03:24;;;;;;;9.73;7.00;;;;;;;18.59;42.34;102340.53;5090222;28;20032;-72
2021/11/16 04:05:50;;;;;;;10.20;7.47;;;;;;;18.59;42.41;102337.88;5093496;28;20031;-73
2021/11/16 04:08:15;;;;;;;10.23;7.20;;;;;;;18.60;42.75;102339.59;5093406;28;20016;-72
2021/11/16 04:10:42;;;;;;;9.48;6.35;;;;;;;18.60;42.51;102334.31;5092811;28;20107;-72
2021/11/16 04:13:08;;;;;;;11.10;7.43;;;;;;;18.59;42.46;102340.53;5092481;28;20541;-72
2021/11/16 04:15:33;;;;;;;10.35;7.45;;;;;;;18.60;42.38;102340.44;5092260;28;20024;-74
2021/11/16 04:18:00;;;;;;;9.80;7.00;;;;;;;18.59;42.74;102340.53;5092172;28;20028;-73
2021/11/16 04:20:32;;;;;;;10.13;7.10;;;;;;;18.59;42.68;102338.72;5092705;28;20039;-73
2021/11/16 04:22:59;;;;;;;9.38;7.28;;;;;;;18.58;42.77;102339.69;5091941;28;20450;-73
2021/11/16 04:25:26;;;;;;;11.05;7.45;;;;;;;18.57;42.49;102337.97;5091935;28;20074;-72
2021/11/16 04:27:51;;;;;;;10.40;7.28;;;;;;;18.58;42.96;102334.41;5092410;28;20066;-72
2021/11/16 04:30:20;;;;;;;10.43;7.38;;;;;;;18.58;42.72;102331.75;5092834;28;20024;-73
2021/11/16 04:32:45;;;;;;;10.65;7.75;;;;;;;18.59;42.81;102338.72;5091472;28;20099;-72
2021/11/16 04:35:12;;;;;;;10.10;7.22;;;;;;;18.59;42.50;102333.44;5092485;28;20099;-72
2021/11/16 04:37:40;;;;;;;10.35;7.45;;;;;;;18.59;42.41;102335.25;5092381;28;20024;-72
2021/11/16 04:40:07;;;;;;;11.27;7.65;;;;;;;18.61;42.40;102342.16;5091874;28;20372;-72
2021/11/16 04:42:32;;;;;;;11.70;8.05;;;;;;;18.61;42.19;102336.00;5092148;28;20044;-73
2021/11/16 04:44:57;;;;;;;10.43;7.43;;;;;;;18.61;42.49;102336.00;5092426;28;20479;-72
2021/11/16 04:47:35;;;;;;;10.68;7.65;;;;;;;18.62;41.98;102337.69;5091604;28;20318;-73
2021/11/16 04:50:22;;;;;;;9.98;7.45;;;;;;;18.58;42.38;102320.34;5092205;28;20036;-72
2021/11/16 05:03:37;;;;;;;11.80;7.82;;;;;;;18.62;42.29;102327.97;5092215;28;20078;-73
2021/11/16 05:06:02;;;;;;;10.32;7.07;;;;;;;18.62;42.11;102337.69;5092210;28;20056;-72
2021/11/16 05:08:28;;;;;;;11.18;7.45;;;;;;;18.61;42.15;102328.94;5091523;28;20520;-72
2021/11/16 05:10:53;;;;;;;10.95;7.88;;;;;;;18.60;42.21;102337.78;5092108;28;20023;-71
2021/11/16 05:13:18;;;;;;;9.15;6.82;;;;;;;18.58;42.14;102337.03;5091900;28;20527;-73
2021/11/16 05:15:44;;;;;;;10.50;7.35;;;;;;;18.59;42.44;102343.16;5091875;28;20039;-73
2021/11/16 05:18:09;;;;;;;10.07;7.32;;;;;;;18.56;42.29;102338.91;5092116;28;20367;-73
2021/11/16 05:20:35;;;;;;;10.95;7.10;;;;;;;18.57;42.42;102337.13;5091138;28;20143;-72
2021/11/16 05:23:00;;;;;;;10.38;7.20;;;;;;;18.58;42.58;102336.19;5092070;28;20016;-72
2021/11/16 05:25:26;;;;;;;11.10;7.70;;;;;;;18.57;42.58;102337.13;5092020;28;20028;-72
2021/11/16 05:27:52;;;;;;;10.35;6.95;;;;;;;18.58;42.20;102344.97;5091820;28;20081;-72
2021/11/16 05:30:18;;;;;;;11.68;8.15;;;;;;;18.58;42.35;102342.31;5091964;28;20467;-72
2021/11/16 05:32:44;;;;;;;10.20;7.45;;;;;;;18.60;42.55;102342.22;5091690;28;20111;-72
2021/11/16 05:35:11;;;;;;;11.77;8.05;;;;;;;18.61;42.43;102346.56;5092999;28;20024;-72
2021/11/16 05:37:38;;;;;;;11.95;8.13;;;;;;;18.60;42.06;102348.34;5095332;28;20107;-71
2021/11/16 05:40:04;;;;;;;11.35;7.50;;;;;;;18.61;41.89;102357.13;5095517;28;20441;-73
2021/11/16 05:42:29;;;;;;;11.18;8.02;;;;;;;18.60;42.17;102348.34;5094867;28;20032;-73
2021/11/16 05:44:55;;;;;;;11.30;8.32;;;;;;;18.61;42.13;102350.06;5095395;28;20123;-73
2021/11/16 05:47:21;;;;;;;11.15;7.30;;;;;;;18.61;42.05;102343.91;5095677;28;20099;-72
2021/11/16 05:49:46;;;;;;;10.25;7.65;;;;;;;18.61;41.84;102346.56;5094578;28;20069;-71
2021/11/16 05:52:12;;;;;;;10.15;7.20;;;;;;;18.60;42.01;102337.78;5095420;28;20020;-72
2021/11/16 05:54:37;;;;;;;10.25;7.43;;;;;;;18.61;42.05;102336.00;5094994;28;20028;-73
2021/11/16 05:57:06;;;;;;;10.27;7.05;;;;;;;18.61;42.01;102349.19;5095042;28;20048;-72
2021/11/16 05:59:34;;;;;;;10.27;6.90;;;;;;;18.61;41.89;102339.50;5095146;28;20387;-72
2021/11/16 06:02:06;;;;;;;10.35;7.55;;;;;;;18.61;41.93;102344.78;5095440;28;20024;-72
2021/11/16 06:04:33;;;;;;;10.27;7.13;;;;;;;18.59;42.22;102336.09;5094316;28;20020;-73
2021/11/16 06:06:58;;;;;;;10.65;7.03;;;;;;;18.59;42.00;102344.00;5095067;28;20375;-73
2021/11/16 06:09:26;;;;;;;9.70;7.18;;;;;;;18.59;42.06;102340.53;5095177;28;20029;-72
2021/11/16 06:11:53;;;;;;;10.70;7.55;;;;;;;18.59;42.43;102335.25;5094368;28;20047;-72
2021/11/16 06:14:18;;;;;;;11.88;7.95;;;;;;;18.58;42.46;102338.81;5095259;28;20040;-72
2021/11/16 06:16:43;;;;;;;10.73;7.28;;;;;;;18.59;43.44;102340.53;5093947;28;20610;-72
2021/11/16 06:19:09;;;;;;;9.33;6.03;;;;;;;18.61;43.72;102338.63;5094785;28;20054;-72
2021/11/16 06:21:35;;;;;;;9.43;6.75;;;;;;;18.62;44.20;102330.63;5094470;28;20276;-72
2021/11/16 06:24:00;;;;;;;9.90;6.88;;;;;;;18.66;44.38;102326.03;5094510;28;20025;-72
2021/11/16 06:26:31;;;;;;;9.30;6.07;;;;;;;18.69;44.77;102336.38;5093930;28;20471;-72
2021/11/16 06:28:56;;;;;;;10.25;6.45;;;;;;;18.71;44.38;102334.50;5094693;28;20024;-72
2021/11/16 06:31:25;;;;;;;10.00;5.97;;;;;;;18.74;44.55;102328.19;5094012;28;20058;-72
2021/11/16 06:33:51;;;;;;;8.88;5.57;;;;;;;18.78;44.37;102342.91;5094608;28;20272;-72
2021/11/16 06:36:16;;;;;;;9.60;6.18;;;;;;;18.79;44.42;102345.47;5094598;28;20024;-72
2021/11/16 06:38:41;;;;;;;8.63;5.78;;;;;;;18.82;44.23;102347.06;5093357;28;20063;-72
2021/11/16 06:41:07;;;;;;;9.10;6.18;;;;;;;18.84;44.35;102343.41;5094678;28;20105;-73
2021/11/16 06:43:34;;;;;;;8.98;5.80;;;;;;;18.89;44.31;102347.59;5094491;28;20024;-72
2021/11/16 06:46:02;;;;;;;8.20;5.55;;;;;;;18.91;44.46;102346.53;5093041;28;20035;-72
2021/11/16 06:48:28;;;;;;;8.13;5.70;;;;;;;18.94;44.42;102348.16;5093921;28;20115;-72
2021/11/16 06:50:54;;;;;;;9.23;5.80;;;;;;;18.97;44.34;102350.59;5094000;28;20120;-72
2021/11/16 06:53:27;;;;;;;8.73;6.10;;;;;;;18.98;44.04;102353.16;5093559;28;20056;-72
2021/11/16 06:55:53;;;;;;;8.63;5.68;;;;;;;19.01;43.93;102352.13;5093763;28;20449;-71
2021/11/16 06:58:18;;;;;;;8.30;5.63;;;;;;;19.02;44.23;102345.88;5093694;28;20527;-71
2021/11/16 07:00:44;;;;;;;9.40;6.00;;;;;;;19.05;44.16;102343.03;5092660;28;20054;-72
2021/11/16 07:03:15;;;;;;;8.52;5.78;;;;;;;19.07;44.28;102341.16;5093474;28;20024;-72
2021/11/16 07:05:49;;;;;;;8.68;5.30;;;;;;;19.09;44.14;102346.34;5093353;28;20016;-73
2021/11/16 07:08:38;;;;;;;8.68;5.32;;;;;;;19.11;44.13;102345.31;5093810;28;20048;-72
2021/11/16 07:11:19;;;;;;;9.10;5.63;;;;;;;19.12;43.74;102333.81;5093310;28;20123;-71
2021/11/16 07:14:03;;;;;;;8.85;5.75;;;;;;;19.15;43.84;102335.41;5092529;28;20028;-72
2021/11/16 07:16:41;;;;;;;9.43;5.68;;;;;;;19.16;43.89;102329.19;5093206;28;20371;-70
2021/11/16 07:19:08;;;;;;;13.15;8.05;;;;;;;19.15;42.45;102343.31;5093157;28;20165;-70
2021/11/16 07:21:42;;;;;;;12.65;8.15;;;;;;;19.13;43.24;102343.41;5092286;28;20020;-71
2021/11/16 07:24:14;;;;;;;9.98;7.05;;;;;;;19.13;43.37;102339.94;5093356;28;20032;-72
2021/11/16 07:26:41;;;;;;;8.65;6.15;;;;;;;19.14;43.01;102342.47;5092909;28;20443;-71
2021/11/16 07:29:15;;;;;;;10.15;7.15;;;;;;;19.14;42.96;102342.47;5092589;28;20036;-69
2021/11/16 07:31:43;;;;;;;10.18;6.90;;;;;;;19.16;43.34;102345.88;5092822;28;20028;-70
2021/11/16 07:34:14;;;;;;;9.52;6.00;;;;;;;19.19;43.54;102343.03;5092635;28;20070;-69
2021/11/16 07:36:40;;;;;;;8.60;5.90;;;;;;;19.21;43.28;102349.06;5093205;28;20020;-70
2021/11/16 07:39:05;;;;;;;9.75;6.13;;;;;;;19.22;43.43;102347.31;5093208;28;20036;-72
2021/11/16 07:41:31;;;;;;;10.20;6.53;;;;;;;19.25;43.37;102355.03;5091932;28;20069;-70
2021/11/16 07:43:57;;;;;;;9.40;6.05;;;;;;;19.27;43.54;102358.44;5092978;28;20064;-71
2021/11/16 07:46:23;;;;;;;8.98;6.38;;;;;;;19.29;43.47;102353.88;5093006;28;20067;-70
2021/11/16 07:48:48;;;;;;;9.93;5.85;;;;;;;19.31;43.54;102356.44;5092083;28;20055;-67
2021/11/16 07:51:14;;;;;;;9.50;5.43;;;;;;;19.32;43.64;102355.50;5093636;28;20459;-72
2021/11/16 07:53:42;;;;;;;8.80;5.93;;;;;;;19.35;43.65;102357.94;5094883;28;20024;-66
2021/11/16 07:56:10;;;;;;;8.88;5.57;;;;;;;19.36;43.75;102357.84;5092390;28;20058;-68
2021/11/16 07:58:44;;;;;;;9.30;6.25;;;;;;;19.37;43.35;102353.41;5093762;28;20114;-69
2021/11/16 08:01:19;;;;;;;8.30;5.97;;;;;;;19.38;43.58;102355.13;5097572;28;20028;-71
2021/11/16 08:04:02;;;;;;;9.20;5.95;;;;;;;19.38;43.55;102352.47;5093447;28;20028;-72
2021/11/16 08:06:36;;;;;;;8.32;5.70;;;;;;;19.39;43.45;102343.56;5094047;28;20024;-73
2021/11/16 08:09:28;;;;;;;9.43;6.00;;;;;;;19.39;43.57;102343.56;5093062;28;20028;-72
2021/11/16 08:12:48;;;;;;;9.40;6.70;;;;;;;19.37;43.21;102338.38;5092883;28;20121;-70
2021/11/16 08:15:12;;;;;;;10.43;6.55;;;;;;;19.37;43.31;102343.66;5087026;28;20047;-72
2021/11/16 08:17:39;;;;;;;9.00;6.30;;;;;;;19.39;43.22;102339.16;5091745;28;20028;-71
2021/11/16 08:20:08;;;;;;;9.73;6.97;;;;;;;19.37;43.03;102338.38;5092274;28;20028;-74
2021/11/16 08:22:35;;;;;;;10.90;7.28;;;;;;;19.39;43.23;102340.94;5034348;28;20071;-69
2021/11/16 08:25:00;;;;;;;9.20;6.55;;;;;;;19.38;43.02;102340.09;5079923;28;20032;-70
2021/11/16 08:27:36;;;;;;;10.32;6.97;;;;;;;19.38;43.03;102339.25;5092786;28;20023;-71
2021/11/16 08:30:12;;;;;;;8.88;6.20;;;;;;;19.39;43.15;102333.00;5092828;28;20021;-70
2021/11/16 08:32:39;;;;;;;10.70;6.47;;;;;;;19.38;43.46;102326.03;5093953;28;20031;-69
2021/11/16 08:35:24;;;;;;;9.45;5.90;;;;;;;19.40;43.41;102329.44;5095049;28;20085;-79
2021/11/16 08:37:55;;;;;;;12.25;7.00;;;;;;;19.43;43.37;102329.22;5097382;28;20028;-73
2021/11/16 08:40:24;;;;;;;12.70;7.43;;;;;;;19.49;42.92;102331.50;5099869;28;20059;-73
2021/11/16 08:42:57;;;;;;;10.68;7.00;;;;;;;19.56;42.69;102338.06;5100044;28;20028;-77
2021/11/16 08:45:33;;;;;;;11.00;7.47;;;;;;;19.62;42.39;102330.72;5098581;28;20042;-72
2021/11/16 08:48:08;;;;;;;11.50;6.70;;;;;;;19.67;42.32;102331.25;5098561;28;20036;-72
2021/11/16 08:50:37;;;;;;;12.77;7.53;;;;;;;19.70;42.13;102328.41;5099853;28;20039;-74
2021/11/16 08:53:06;;;;;;;12.30;7.47;;;;;;;19.72;42.15;102332.63;5099697;28;20027;-72
2021/11/16 08:55:38;;;;;;;12.07;7.30;;;;;;;19.75;41.93;102332.44;5099447;28;20463;-73
2021/11/16 08:58:06;;;;;;;10.18;7.40;;;;;;;19.79;41.79;102327.00;5097985;28;20032;-72
2021/11/16 09:00:36;;;;;;;10.57;7.22;;;;;;;19.80;41.90;102323.41;5092858;28;20035;-75
2021/11/16 09:03:20;;;;;;;11.23;7.60;;;;;;;19.82;41.81;102311.78;5094081;28;20024;-73
2021/11/16 09:05:49;;;;;;;10.57;7.33;;;;;;;19.83;41.87;102320.56;5091772;28;20020;-71
2021/11/16 09:08:26;;;;;;;10.60;7.63;;;;;;;19.85;41.61;102319.53;5092487;28;20056;-72
2021/11/16 09:11:02;;;;;;;10.20;7.30;;;;;;;19.88;41.81;102310.53;5095740;28;20036;-70
2021/11/16 09:13:29;;;;;;;10.70;7.22;;;;;;;19.89;41.33;102312.22;5096135;28;20031;-70
2021/11/16 09:16:30;;;;;;;10.85;7.22;;;;;;;19.89;41.41;102307.78;5097159;28;20036;-69
2021/11/16 09:18:58;;;;;;;9.63;6.50;;;;;;;19.86;41.65;102307.97;5083721;28;20455;-69
2021/11/16 09:21:26;;;;;;;10.32;6.90;;;;;;;19.81;41.63;102304.78;5095289;28;20016;-69
2021/11/16 09:24:01;;;;;;;10.45;7.00;;;;;;;19.76;41.86;102304.25;5095882;28;20024;-69
2021/11/16 09:28:56;;;;;;;10.43;7.47;;;;;;;19.64;41.80;102297.06;5095690;28;20057;-70
2021/11/16 09:31:26;;;;;;;13.38;7.88;;;;;;;19.59;41.99;102292.06;5095408;28;20036;-70
2021/11/16 09:33:54;;;;;;;10.82;7.50;;;;;;;19.54;42.03;102297.66;5094846;28;20024;-70
2021/11/16 09:36:26;;;;;;;11.02;7.35;;;;;;;19.52;42.04;102291.63;5095611;28;20172;-70
2021/11/16 09:38:56;;;;;;;11.85;7.97;;;;;;;19.49;42.06;102301.56;5094998;28;20016;-70
2021/11/16 09:41:28;;;;;;;10.80;7.95;;;;;;;19.45;42.24;102303.53;5094424;28;20035;-70
2021/11/16 09:44:21;;;;;;;10.32;7.47;;;;;;;19.42;42.43;102305.53;5095119;28;20036;-70
2021/11/16 09:46:51;;;;;;;11.98;7.85;;;;;;;19.26;42.48;102281.88;5092403;28;20133;-70
2021/11/16 09:49:23;;;;;;;11.30;8.20;;;;;;;19.38;42.38;102308.38;5094724;28;20027;-70
2021/11/16 09:52:10;;;;;;;10.38;7.40;;;;;;;19.38;42.00;102308.38;5094967;28;20024;-71
2021/11/16 09:54:50;;;;;;;11.50;7.35;;;;;;;19.37;42.12;102309.31;5095018;28;20016;-71
2021/11/16 09:57:16;;;;;;;11.35;7.60;;;;;;;19.41;41.88;102307.34;5095978;28;20162;-70
2021/11/16 09:59:46;;;;;;;12.45;7.63;;;;;;;19.45;42.02;102305.34;5096213;28;20047;-71
2021/11/16 10:02:17;;;;;;;10.68;7.53;;;;;;;19.46;41.93;102294.66;5094944;28;20038;-69
2021/11/16 10:04:52;;;;;;;11.05;7.60;;;;;;;19.47;41.53;102291.09;5097247;28;20046;-74
2021/11/16 10:07:22;;;;;;;10.57;7.63;;;;;;;19.53;41.57;102295.13;5096888;28;20036;-78
2021/11/16 10:09:50;;;;;;;12.13;8.07;;;;;;;19.56;41.70;102284.34;5097006;28;20031;-69
2021/11/16 10:12:18;;;;;;;12.20;7.43;;;;;;;19.55;41.75;102283.50;5096291;28;20139;-70
2021/11/16 10:14:45;;;;;;;13.15;7.78;;;;;;;19.53;41.89;102292.47;5095712;28;20023;-69
2021/11/16 10:17:10;;;;;;;10.80;7.18;;;;;;;19.51;41.99;102287.28;5094935;28;20031;-70
2021/11/16 10:19:36;;;;;;;11.68;7.30;;;;;;;19.48;42.11;102289.28;5095015;28;20468;-69
2021/11/16 10:22:05;;;;;;;11.40;7.85;;;;;;;19.42;41.87;102282.56;5093847;28;20024;-68
2021/11/16 10:24:34;;;;;;;11.23;7.60;;;;;;;19.40;41.98;102282.69;5093948;28;20403;-69
2021/11/16 10:27:19;;;;;;;17.48;8.07;;;;;;;19.39;41.71;102277.47;5095360;28;20075;-73
2021/11/16 10:30:00;;;;;;;9.90;7.35;;;;;;;19.41;41.99;102275.63;5094671;28;20396;-71
2021/11/16 10:32:25;;;;;;;10.15;7.50;;;;;;;19.40;41.63;102279.19;5095412;28;20035;-71
2021/11/16 10:35:04;;;;;;;11.25;7.60;;;;;;;19.37;41.97;102276.75;5095120;28;20028;-72
2021/11/16 10:37:42;;;;;;;11.18;7.03;;;;;;;19.35;41.86;102270.72;5094041;28;20031;-72
2021/11/16 10:40:12;;;;;;;11.55;7.47;;;;;;;19.32;42.01;102269.09;5094761;28;20024;-71
2021/11/16 10:42:49;;;;;;;10.32;7.35;;;;;;;19.30;42.10;102262.25;5094650;28;20035;-72
2021/11/16 10:45:18;;;;;;;11.00;7.75;;;;;;;19.31;42.04;102261.28;5095158;28;20486;-73
2021/11/16 10:47:47;;;;;;;11.77;7.60;;;;;;;19.27;42.17;102249.22;5094517;28;20032;-73
2021/11/16 10:50:17;;;;;;;11.85;7.50;;;;;;;19.30;42.15;102256.97;5094563;28;20111;-71
2021/11/16 10:52:43;;;;;;;11.25;7.40;;;;;;;19.31;41.64;102261.28;5093529;28;20428;-68
2021/11/16 10:55:10;;;;;;;11.15;7.70;;;;;;;19.26;42.06;102251.00;5094729;28;20032;-72
2021/11/16 10:57:56;;;;;;;11.02;7.20;;;;;;;19.26;42.18;102250.16;5094768;28;20035;-74
2021/11/16 11:00:34;;;;;;;10.77;7.25;;;;;;;19.26;42.34;102248.34;5094562;28;20078;-72
2021/11/16 11:03:33;;;;;;;10.80;7.15;;;;;;;19.26;42.26;102248.34;5094406;28;20032;-73
2021/11/16 11:06:07;;;;;;;12.35;7.38;;;;;;;19.26;42.32;102243.06;5089726;28;20047;-73
2021/11/16 11:08:33;;;;;;;;;;;;;;;19.27;42.21;102241.28;5094893;28;20078;-73
2021/11/16 11:11:00;;;;;;;11.82;6.88;;;;;;;19.28;42.21;102242.97;5094398;28;19912;-74
2021/11/16 11:13:27;;;;;;;11.45;7.05;;;;;;;19.27;42.14;102242.13;5093517;28;20479;-72
2021/11/16 11:15:53;;;;;;;12.45;7.93;;;;;;;19.28;42.07;102235.03;5094147;28;20060;-72
2021/11/16 11:18:49;;;;;;;13.93;7.57;;;;;;;19.26;42.20;102243.06;5093809;28;20024;-73
2021/11/16 11:21:37;;;;;;;11.02;7.90;;;;;;;19.26;42.12;102237.78;5088405;28;20071;-73
2021/11/16 11:24:12;;;;;;;11.60;7.82;;;;;;;19.26;42.17;102231.66;5093917;28;20027;-72
2021/11/16 11:26:48;;;;;;;10.43;7.13;;;;;;;19.27;42.13;102231.56;5092882;28;20035;-72
2021/11/16 11:29:32;;;;;;;11.85;7.20;;;;;;;19.28;42.24;102224.47;5096051;28;20487;-72
2021/11/16 11:32:16;;;;;;;9.70;7.20;;;;;;;19.27;42.23;102220.16;5093887;28;20044;-72
2021/11/16 11:34:49;;;;;;;12.00;7.20;;;;;;;19.29;42.23;102219.06;5092945;28;20031;-72
2021/11/16 11:37:24;;;;;;;11.15;7.20;;;;;;;19.29;42.01;102218.25;5094363;28;20036;-72
2021/11/16 11:40:10;;;;;;;9.48;7.03;;;;;;;19.30;42.01;102219.94;5093525;28;20027;-72
2021/11/16 11:42:38;;;;;;;10.48;6.78;;;;;;;19.29;42.33;102219.06;5093180;28;20028;-73
2021/11/16 11:45:25;;;;;;;9.98;6.93;;;;;;;19.29;42.52;102215.59;5094075;28;20039;-72